createdAt,value
2023-01-09T00:00:41.111Z,981.75
2023-01-09T00:01:41.044Z,981.77
2023-01-09T00:02:41.112Z,981.70
2023-01-09T00:03:40.999Z,981.69
2023-01-09T00:04:41.039Z,981.68
2023-01-09T00:05:40.968Z,981.65
2023-01-09T00:06:40.938Z,981.68
2023-01-09T00:07:40.925Z,981.64
2023-01-09T00:08:40.909Z,981.63
2023-01-09T00:09:40.888Z,981.64
2023-01-09T00:10:40.868Z,981.64
2023-01-09T00:11:40.853Z,981.65
2023-01-09T00:12:40.829Z,981.62
2023-01-09T00:13:40.814Z,981.64
2023-01-09T00:14:40.799Z,981.65
2023-01-09T00:15:40.782Z,981.58
2023-01-09T00:16:40.782Z,981.58
2023-01-09T00:17:40.748Z,981.59
2023-01-09T00:18:40.719Z,981.54
2023-01-09T00:19:40.705Z,981.57
2023-01-09T00:20:40.693Z,981.55
2023-01-09T00:21:40.694Z,981.58
2023-01-09T00:22:40.651Z,981.55
2023-01-09T00:23:40.627Z,981.53
2023-01-09T00:24:40.609Z,981.56
2023-01-09T00:25:42.492Z,981.48
2023-01-09T00:26:40.627Z,981.48
2023-01-09T00:27:40.555Z,981.41
2023-01-09T00:28:40.539Z,981.43
2023-01-09T00:29:40.520Z,981.42
2023-01-09T00:30:40.512Z,981.40
2023-01-09T00:31:40.482Z,981.43
2023-01-09T00:32:40.463Z,981.40
2023-01-09T00:33:40.488Z,981.44
2023-01-09T00:34:40.439Z,981.44
2023-01-09T00:35:40.422Z,981.43
2023-01-09T00:36:40.392Z,981.45
2023-01-09T00:37:40.385Z,981.48
2023-01-09T00:38:40.352Z,981.47
2023-01-09T00:39:40.384Z,981.44
2023-01-09T00:40:40.320Z,981.47
2023-01-09T00:41:40.307Z,981.49
2023-01-09T00:42:40.288Z,981.46
2023-01-09T00:43:40.316Z,981.47
2023-01-09T00:44:40.247Z,981.42
2023-01-09T00:45:40.250Z,981.43
2023-01-09T00:46:40.206Z,981.42
2023-01-09T00:47:40.193Z,981.43
2023-01-09T00:48:40.182Z,981.44
2023-01-09T00:49:40.185Z,981.43
2023-01-09T00:50:40.141Z,981.39
2023-01-09T00:51:40.126Z,981.45
2023-01-09T00:52:40.124Z,981.46
2023-01-09T00:53:40.084Z,981.46
2023-01-09T00:54:40.089Z,981.43
2023-01-09T00:55:40.074Z,981.45
2023-01-09T00:56:40.028Z,981.45
2023-01-09T00:57:40.013Z,981.42
2023-01-09T00:58:39.989Z,981.41
2023-01-09T00:59:40.010Z,981.39
2023-01-09T01:00:39.969Z,981.38
2023-01-09T01:01:40.083Z,981.39
2023-01-09T01:02:39.934Z,981.37
2023-01-09T01:03:39.917Z,981.34
2023-01-09T01:04:39.878Z,981.40
2023-01-09T01:05:39.874Z,981.36
2023-01-09T01:06:39.873Z,981.35
2023-01-09T01:07:39.863Z,981.31
2023-01-09T01:08:39.804Z,981.31
2023-01-09T01:09:39.788Z,981.30
2023-01-09T01:10:39.775Z,981.36
2023-01-09T01:11:39.813Z,981.34
2023-01-09T01:12:39.736Z,981.33
2023-01-09T01:13:39.721Z,981.33
2023-01-09T01:14:39.722Z,981.32
2023-01-09T01:15:39.690Z,981.31
2023-01-09T01:16:39.678Z,981.35
2023-01-09T01:17:39.671Z,981.32
2023-01-09T01:18:39.627Z,981.34
2023-01-09T01:19:39.615Z,981.33
2023-01-09T01:20:39.594Z,981.35
2023-01-09T01:21:39.575Z,981.34
2023-01-09T01:22:39.572Z,981.35
2023-01-09T01:23:39.535Z,981.35
2023-01-09T01:24:39.516Z,981.33
2023-01-09T01:25:39.517Z,981.33
2023-01-09T01:26:39.480Z,981.35
2023-01-09T01:27:39.470Z,981.36
2023-01-09T01:28:39.447Z,981.36
2023-01-09T01:29:39.432Z,981.36
2023-01-09T01:30:39.426Z,981.39
2023-01-09T01:31:39.390Z,981.40
2023-01-09T01:32:39.404Z,981.36
2023-01-09T01:33:39.371Z,981.33
2023-01-09T01:34:39.359Z,981.34
2023-01-09T01:35:39.319Z,981.38
2023-01-09T01:36:39.304Z,981.35
2023-01-09T01:37:39.311Z,981.39
2023-01-09T01:38:39.268Z,981.31
2023-01-09T01:39:39.272Z,981.38
2023-01-09T01:40:39.228Z,981.35
2023-01-09T01:41:39.250Z,981.38
2023-01-09T01:42:39.193Z,981.38
2023-01-09T01:43:39.176Z,981.35
2023-01-09T01:44:39.156Z,981.41
2023-01-09T01:45:39.181Z,981.44
2023-01-09T01:46:39.118Z,981.39
2023-01-09T01:47:39.151Z,981.42
2023-01-09T01:48:39.084Z,981.43
2023-01-09T01:49:39.073Z,981.44
2023-01-09T01:50:39.046Z,981.42
2023-01-09T01:51:39.030Z,981.42
2023-01-09T01:52:39.014Z,981.45
2023-01-09T01:53:39.006Z,981.42
2023-01-09T01:54:38.977Z,981.45
2023-01-09T01:55:38.956Z,981.43
2023-01-09T01:56:38.979Z,981.44
2023-01-09T01:57:38.922Z,981.47
2023-01-09T01:58:38.903Z,981.43
2023-01-09T01:59:38.890Z,981.45
2023-01-09T02:00:38.871Z,981.46
2023-01-09T02:01:38.988Z,981.43
2023-01-09T02:02:38.876Z,981.46
2023-01-09T02:03:38.844Z,981.41
2023-01-09T02:04:38.795Z,981.45
2023-01-09T02:05:38.814Z,981.42
2023-01-09T02:06:38.810Z,981.51
2023-01-09T02:07:38.742Z,981.41
2023-01-09T02:08:38.787Z,981.44
2023-01-09T02:09:38.737Z,981.42
2023-01-09T02:10:38.684Z,981.42
2023-01-09T02:11:38.671Z,981.41
2023-01-09T02:12:38.648Z,981.42
2023-01-09T02:13:38.712Z,981.43
2023-01-09T02:14:38.616Z,981.41
2023-01-09T02:15:38.597Z,981.41
2023-01-09T02:16:38.573Z,981.47
2023-01-09T02:17:38.572Z,981.48
2023-01-09T02:18:38.541Z,981.48
2023-01-09T02:19:38.551Z,981.48
2023-01-09T02:20:38.509Z,981.30
2023-01-09T02:21:38.508Z,981.46
2023-01-09T02:22:38.475Z,981.36
2023-01-09T02:23:38.456Z,981.40
2023-01-09T02:24:38.460Z,981.31
2023-01-09T02:25:38.421Z,981.34
2023-01-09T02:26:38.394Z,981.33
2023-01-09T02:27:38.431Z,981.36
2023-01-09T02:28:38.362Z,981.35
2023-01-09T02:29:38.343Z,981.33
2023-01-09T02:30:38.348Z,981.32
2023-01-09T02:31:38.356Z,981.33
2023-01-09T02:32:38.308Z,981.37
2023-01-09T02:33:38.303Z,981.37
2023-01-09T02:34:38.247Z,981.31
2023-01-09T02:35:38.240Z,981.32
2023-01-09T02:36:38.208Z,981.30
2023-01-09T02:37:38.225Z,981.29
2023-01-09T02:38:38.190Z,981.28
2023-01-09T02:39:38.164Z,981.25
2023-01-09T02:40:38.156Z,981.26
2023-01-09T02:41:38.119Z,981.25
2023-01-09T02:42:38.203Z,981.21
2023-01-09T02:43:38.086Z,981.25
2023-01-09T02:44:38.068Z,981.15
2023-01-09T02:45:38.076Z,981.16
2023-01-09T02:46:38.051Z,981.22
2023-01-09T02:47:38.014Z,981.18
2023-01-09T02:48:38.026Z,981.16
2023-01-09T02:49:37.975Z,981.11
2023-01-09T02:50:37.967Z,981.09
2023-01-09T02:51:37.941Z,981.12
2023-01-09T02:52:37.922Z,981.09
2023-01-09T02:53:37.906Z,981.09
2023-01-09T02:54:37.878Z,981.05
2023-01-09T02:55:37.870Z,981.12
2023-01-09T02:56:37.841Z,981.15
2023-01-09T02:57:37.825Z,981.09
2023-01-09T02:58:37.836Z,981.11
2023-01-09T02:59:37.799Z,981.10
2023-01-09T03:00:37.773Z,981.12
2023-01-09T03:01:37.906Z,981.09
2023-01-09T03:02:37.767Z,981.12
2023-01-09T03:03:37.716Z,981.08
2023-01-09T03:04:37.702Z,981.05
2023-01-09T03:05:37.718Z,981.06
2023-01-09T03:06:37.713Z,981.07
2023-01-09T03:07:37.669Z,981.06
2023-01-09T03:08:37.639Z,981.08
2023-01-09T03:09:37.609Z,981.06
2023-01-09T03:10:37.590Z,981.01
2023-01-09T03:11:37.570Z,981.01
2023-01-09T03:12:37.563Z,981.05
2023-01-09T03:13:37.548Z,981.03
2023-01-09T03:14:37.513Z,981.05
2023-01-09T03:15:37.515Z,981.04
2023-01-09T03:16:37.518Z,981.02
2023-01-09T03:17:37.489Z,981.07
2023-01-09T03:18:37.442Z,981.06
2023-01-09T03:19:37.425Z,981.07
2023-01-09T03:20:37.416Z,981.06
2023-01-09T03:21:37.404Z,981.08
2023-01-09T03:22:37.366Z,981.10
2023-01-09T03:23:37.378Z,981.11
2023-01-09T03:24:37.342Z,981.06
2023-01-09T03:25:37.324Z,981.02
2023-01-09T03:26:37.292Z,981.10
2023-01-09T03:27:37.283Z,981.08
2023-01-09T03:28:37.281Z,981.06
2023-01-09T03:29:37.235Z,981.06
2023-01-09T03:30:37.217Z,981.07
2023-01-09T03:31:37.288Z,981.06
2023-01-09T03:32:37.183Z,981.09
2023-01-09T03:33:37.191Z,981.08
2023-01-09T03:34:37.143Z,981.09
2023-01-09T03:35:37.135Z,981.11
2023-01-09T03:36:37.132Z,981.14
2023-01-09T03:37:37.091Z,981.14
2023-01-09T03:38:37.072Z,981.21
2023-01-09T03:39:37.127Z,981.27
2023-01-09T03:40:37.035Z,981.31
2023-01-09T03:41:37.023Z,981.30
2023-01-09T03:42:36.997Z,981.28
2023-01-09T03:43:36.997Z,981.29
2023-01-09T03:44:36.965Z,981.33
2023-01-09T03:45:37.024Z,981.31
2023-01-09T03:46:36.954Z,981.26
2023-01-09T03:47:36.912Z,981.28
2023-01-09T03:48:36.893Z,981.27
2023-01-09T03:49:36.863Z,981.30
2023-01-09T03:50:36.857Z,981.33
2023-01-09T03:51:36.830Z,981.32
2023-01-09T03:52:36.846Z,981.29
2023-01-09T03:53:36.789Z,981.32
2023-01-09T03:54:36.777Z,981.31
2023-01-09T03:55:36.769Z,981.32
2023-01-09T03:56:36.790Z,981.27
2023-01-09T03:57:36.714Z,981.29
2023-01-09T03:58:36.727Z,981.30
2023-01-09T03:59:36.708Z,981.36
2023-01-09T04:00:36.663Z,981.32
2023-01-09T04:01:36.755Z,981.37
2023-01-09T04:02:36.655Z,981.41
2023-01-09T04:03:36.696Z,981.42
2023-01-09T04:04:36.595Z,981.39
2023-01-09T04:05:36.578Z,981.45
2023-01-09T04:06:36.556Z,981.43
2023-01-09T04:07:36.580Z,981.46
2023-01-09T04:08:36.521Z,981.45
2023-01-09T04:09:36.514Z,981.42
2023-01-09T04:10:36.477Z,981.40
2023-01-09T04:11:36.501Z,981.41
2023-01-09T04:12:36.471Z,981.42
2023-01-09T04:13:36.422Z,981.45
2023-01-09T04:14:36.400Z,981.46
2023-01-09T04:15:36.383Z,981.48
2023-01-09T04:16:36.421Z,981.53
2023-01-09T04:17:36.347Z,981.49
2023-01-09T04:18:36.400Z,981.58
2023-01-09T04:19:36.332Z,981.57
2023-01-09T04:20:36.288Z,981.64
2023-01-09T04:21:36.285Z,981.64
2023-01-09T04:22:36.257Z,981.67
2023-01-09T04:23:36.235Z,981.70
2023-01-09T04:24:36.245Z,981.70
2023-01-09T04:25:36.201Z,981.69
2023-01-09T04:26:36.182Z,981.70
2023-01-09T04:27:36.159Z,981.71
2023-01-09T04:28:36.145Z,981.76
2023-01-09T04:29:36.125Z,981.76
2023-01-09T04:30:36.139Z,981.78
2023-01-09T04:31:36.145Z,981.74
2023-01-09T04:32:36.069Z,981.73
2023-01-09T04:33:36.047Z,981.74
2023-01-09T04:34:36.036Z,981.78
2023-01-09T04:35:36.035Z,981.79
2023-01-09T04:36:36.049Z,981.77
2023-01-09T04:37:35.985Z,981.88
2023-01-09T04:38:35.952Z,981.90
2023-01-09T04:39:35.937Z,981.91
2023-01-09T04:40:35.954Z,981.86
2023-01-09T04:41:35.900Z,981.96
2023-01-09T04:42:35.884Z,982.01
2023-01-09T04:43:35.865Z,982.04
2023-01-09T04:44:35.843Z,982.00
2023-01-09T04:45:35.841Z,982.06
2023-01-09T04:46:35.868Z,982.05
2023-01-09T04:47:35.795Z,982.07
2023-01-09T04:48:35.767Z,982.13
2023-01-09T04:49:35.748Z,982.10
2023-01-09T04:50:35.730Z,982.13
2023-01-09T04:51:35.710Z,982.12
2023-01-09T04:52:37.611Z,982.16
2023-01-09T04:53:35.672Z,982.17
2023-01-09T04:54:35.681Z,982.11
2023-01-09T04:55:35.639Z,982.16
2023-01-09T04:56:35.631Z,982.19
2023-01-09T04:57:35.601Z,982.19
2023-01-09T04:58:35.606Z,982.25
2023-01-09T04:59:35.578Z,982.22
2023-01-09T05:00:35.541Z,982.26
2023-01-09T05:01:35.694Z,982.28
2023-01-09T05:02:35.536Z,982.28
2023-01-09T05:03:35.536Z,982.30
2023-01-09T05:04:35.530Z,982.33
2023-01-09T05:05:35.461Z,982.36
2023-01-09T05:06:35.432Z,982.34
2023-01-09T05:07:35.410Z,982.31
2023-01-09T05:08:35.458Z,982.30
2023-01-09T05:09:35.401Z,982.31
2023-01-09T05:10:35.358Z,982.30
2023-01-09T05:11:35.351Z,982.31
2023-01-09T05:12:35.325Z,982.34
2023-01-09T05:13:35.299Z,982.34
2023-01-09T05:14:35.341Z,982.39
2023-01-09T05:15:35.282Z,982.39
2023-01-09T05:16:35.271Z,982.31
2023-01-09T05:17:35.233Z,982.41
2023-01-09T05:18:35.217Z,982.39
2023-01-09T05:19:35.188Z,982.38
2023-01-09T05:20:35.198Z,982.38
2023-01-09T05:21:35.161Z,982.38
2023-01-09T05:22:35.161Z,982.36
2023-01-09T05:23:35.121Z,982.39
2023-01-09T05:24:35.101Z,982.39
2023-01-09T05:25:35.130Z,982.44
2023-01-09T05:26:35.087Z,982.45
2023-01-09T05:27:35.053Z,982.46
2023-01-09T05:28:35.027Z,982.47
2023-01-09T05:29:35.002Z,982.45
2023-01-09T05:30:34.975Z,982.48
2023-01-09T05:31:35.008Z,982.51
2023-01-09T05:32:34.941Z,982.51
2023-01-09T05:33:34.919Z,982.56
2023-01-09T05:34:34.927Z,982.57
2023-01-09T05:35:34.884Z,982.59
2023-01-09T05:36:34.872Z,982.55
2023-01-09T05:37:34.873Z,982.63
2023-01-09T05:38:34.921Z,982.65
2023-01-09T05:39:34.804Z,982.72
2023-01-09T05:40:40.104Z,982.74
2023-01-09T05:41:34.769Z,982.73
2023-01-09T05:42:34.777Z,982.72
2023-01-09T05:43:34.728Z,982.72
2023-01-09T05:44:34.716Z,982.74
2023-01-09T05:45:34.754Z,982.77
2023-01-09T05:46:34.674Z,982.81
2023-01-09T05:47:34.659Z,982.80
2023-01-09T05:48:34.657Z,982.85
2023-01-09T05:49:34.669Z,982.86
2023-01-09T05:50:34.598Z,982.84
2023-01-09T05:51:34.583Z,982.88
2023-01-09T05:52:34.564Z,982.92
2023-01-09T05:53:34.548Z,982.92
2023-01-09T05:54:34.529Z,982.91
2023-01-09T05:55:34.530Z,982.95
2023-01-09T05:56:34.497Z,982.99
2023-01-09T05:57:34.462Z,983.00
2023-01-09T05:58:34.447Z,983.02
2023-01-09T05:59:34.439Z,983.04
2023-01-09T06:00:34.470Z,983.02
2023-01-09T06:01:34.442Z,983.06
2023-01-09T06:02:34.485Z,983.07
2023-01-09T06:03:34.355Z,983.09
2023-01-09T06:04:34.333Z,983.10
2023-01-09T06:05:34.311Z,983.07
2023-01-09T06:06:34.303Z,983.10
2023-01-09T06:07:34.277Z,983.09
2023-01-09T06:08:34.253Z,983.14
2023-01-09T06:09:34.242Z,983.10
2023-01-09T06:10:34.218Z,983.10
2023-01-09T06:11:34.250Z,983.12
2023-01-09T06:12:34.185Z,983.12
2023-01-09T06:13:34.159Z,983.13
2023-01-09T06:14:34.145Z,983.16
2023-01-09T06:15:34.125Z,983.14
2023-01-09T06:16:34.101Z,983.20
2023-01-09T06:17:34.140Z,983.16
2023-01-09T06:18:34.083Z,983.16
2023-01-09T06:19:34.042Z,983.16
2023-01-09T06:20:34.028Z,983.12
2023-01-09T06:21:34.009Z,983.12
2023-01-09T06:22:33.999Z,983.13
2023-01-09T06:23:33.978Z,983.14
2023-01-09T06:24:33.953Z,983.08
2023-01-09T06:25:33.939Z,983.05
2023-01-09T06:26:33.919Z,983.09
2023-01-09T06:27:33.903Z,983.05
2023-01-09T06:28:33.899Z,983.00
2023-01-09T06:29:33.879Z,983.11
2023-01-09T06:30:33.884Z,983.05
2023-01-09T06:31:33.892Z,983.05
2023-01-09T06:32:33.799Z,983.04
2023-01-09T06:33:33.783Z,983.08
2023-01-09T06:34:33.781Z,983.11
2023-01-09T06:35:33.743Z,983.06
2023-01-09T06:36:33.719Z,983.09
2023-01-09T06:37:33.726Z,983.13
2023-01-09T06:38:33.681Z,983.16
2023-01-09T06:39:33.671Z,983.11
2023-01-09T06:40:33.678Z,983.13
2023-01-09T06:41:33.624Z,983.15
2023-01-09T06:42:33.666Z,983.21
2023-01-09T06:43:33.589Z,983.14
2023-01-09T06:44:33.575Z,983.14
2023-01-09T06:45:33.555Z,983.13
2023-01-09T06:46:33.597Z,983.16
2023-01-09T06:47:33.514Z,983.18
2023-01-09T06:48:33.504Z,983.27
2023-01-09T06:49:33.477Z,983.26
2023-01-09T06:50:33.458Z,983.33
2023-01-09T06:51:33.432Z,983.29
2023-01-09T06:52:33.421Z,983.31
2023-01-09T06:53:33.465Z,983.36
2023-01-09T06:54:33.403Z,983.31
2023-01-09T06:55:33.358Z,983.37
2023-01-09T06:56:33.359Z,983.37
2023-01-09T06:57:33.317Z,983.34
2023-01-09T06:58:33.310Z,983.30
2023-01-09T06:59:33.336Z,983.32
2023-01-09T07:00:33.270Z,983.30
2023-01-09T07:01:33.362Z,983.35
2023-01-09T07:02:33.236Z,983.40
2023-01-09T07:03:33.927Z,983.38
2023-01-09T07:04:33.240Z,983.43
2023-01-09T07:05:33.206Z,983.47
2023-01-09T07:06:33.152Z,983.52
2023-01-09T07:07:33.134Z,983.55
2023-01-09T07:08:33.115Z,983.50
2023-01-09T07:09:33.095Z,983.53
2023-01-09T07:10:33.099Z,983.51
2023-01-09T07:11:33.056Z,983.57
2023-01-09T07:12:33.037Z,983.57
2023-01-09T07:13:33.019Z,983.56
2023-01-09T07:14:33.003Z,983.59
2023-01-09T07:15:33.042Z,983.57
2023-01-09T07:16:32.970Z,983.58
2023-01-09T07:17:32.944Z,983.62
2023-01-09T07:18:32.947Z,983.66
2023-01-09T07:19:32.909Z,983.57
2023-01-09T07:20:32.952Z,983.62
2023-01-09T07:21:33.065Z,983.68
2023-01-09T07:22:32.849Z,983.67
2023-01-09T07:23:32.829Z,983.64
2023-01-09T07:24:32.813Z,983.70
2023-01-09T07:25:32.794Z,983.63
2023-01-09T07:26:32.829Z,983.63
2023-01-09T07:27:32.755Z,983.61
2023-01-09T07:28:32.742Z,983.62
2023-01-09T07:29:32.726Z,983.58
2023-01-09T07:30:32.706Z,983.65
2023-01-09T07:31:32.702Z,983.64
2023-01-09T07:32:32.679Z,983.64
2023-01-09T07:33:32.651Z,983.71
2023-01-09T07:34:32.649Z,983.70
2023-01-09T07:35:32.602Z,983.72
2023-01-09T07:36:32.610Z,983.73
2023-01-09T07:37:32.616Z,983.76
2023-01-09T07:38:32.553Z,983.79
2023-01-09T07:39:32.524Z,983.76
2023-01-09T07:40:32.516Z,983.79
2023-01-09T07:41:32.486Z,983.83
2023-01-09T07:42:32.474Z,983.86
2023-01-09T07:43:32.503Z,983.80
2023-01-09T07:44:32.435Z,983.81
2023-01-09T07:45:32.418Z,983.77
2023-01-09T07:46:32.461Z,983.79
2023-01-09T07:47:32.374Z,983.75
2023-01-09T07:48:32.363Z,983.65
2023-01-09T07:49:32.339Z,983.65
2023-01-09T07:50:32.332Z,983.70
2023-01-09T07:51:32.300Z,983.67
2023-01-09T07:52:32.293Z,983.73
2023-01-09T07:53:32.289Z,983.71
2023-01-09T07:54:32.276Z,983.71
2023-01-09T07:55:32.231Z,983.74
2023-01-09T07:56:32.223Z,983.78
2023-01-09T07:57:32.189Z,983.78
2023-01-09T07:58:32.166Z,983.83
2023-01-09T07:59:32.207Z,983.84
2023-01-09T08:00:33.259Z,983.78
2023-01-09T08:01:32.239Z,983.81
2023-01-09T08:02:32.151Z,983.80
2023-01-09T08:03:32.075Z,983.83
2023-01-09T08:04:32.057Z,983.81
2023-01-09T08:05:32.065Z,983.80
2023-01-09T08:06:32.021Z,983.80
2023-01-09T08:07:32.005Z,983.80
2023-01-09T08:08:31.983Z,983.82
2023-01-09T08:09:31.962Z,983.80
2023-01-09T08:10:32.000Z,983.85
2023-01-09T08:11:31.927Z,983.81
2023-01-09T08:12:31.910Z,983.83
2023-01-09T08:13:31.887Z,983.79
2023-01-09T08:14:31.973Z,983.81
2023-01-09T08:15:31.901Z,983.81
2023-01-09T08:16:31.833Z,983.79
2023-01-09T08:17:31.816Z,983.78
2023-01-09T08:18:31.854Z,983.78
2023-01-09T08:19:31.789Z,983.83
2023-01-09T08:20:31.784Z,983.74
2023-01-09T08:21:31.762Z,983.79
2023-01-09T08:22:31.729Z,983.77
2023-01-09T08:23:31.722Z,983.78
2023-01-09T08:24:31.689Z,983.80
2023-01-09T08:25:31.673Z,983.80
2023-01-09T08:26:31.648Z,983.86
2023-01-09T08:27:31.652Z,983.87
2023-01-09T08:28:31.677Z,983.86
2023-01-09T08:29:31.604Z,983.86
2023-01-09T08:30:31.593Z,983.85
2023-01-09T08:31:31.599Z,983.88
2023-01-09T08:32:31.530Z,983.88
2023-01-09T08:33:31.533Z,983.84
2023-01-09T08:34:31.573Z,983.88
2023-01-09T08:35:31.476Z,983.91
2023-01-09T08:36:31.461Z,983.89
2023-01-09T08:37:31.508Z,983.89
2023-01-09T08:38:31.424Z,983.90
2023-01-09T08:39:31.426Z,983.91
2023-01-09T08:40:31.380Z,983.86
2023-01-09T08:41:31.368Z,983.90
2023-01-09T08:42:31.349Z,983.92
2023-01-09T08:43:31.334Z,983.87
2023-01-09T08:44:31.362Z,983.93
2023-01-09T08:45:31.296Z,983.95
2023-01-09T08:46:33.464Z,983.95
2023-01-09T08:47:31.258Z,983.94
2023-01-09T08:48:31.233Z,983.97
2023-01-09T08:49:31.227Z,984.01
2023-01-09T08:50:31.223Z,984.01
2023-01-09T08:51:31.210Z,983.95
2023-01-09T08:52:31.161Z,983.99
2023-01-09T08:53:31.145Z,984.02
2023-01-09T08:54:31.352Z,983.94
2023-01-09T08:55:31.101Z,983.99
2023-01-09T08:56:31.110Z,984.01
2023-01-09T08:57:31.075Z,984.02
2023-01-09T08:58:31.053Z,984.07
2023-01-09T08:59:31.035Z,984.07
2023-01-09T09:00:31.012Z,984.07
2023-01-09T09:01:31.045Z,984.03
2023-01-09T09:02:31.001Z,984.02
2023-01-09T09:03:30.957Z,984.05
2023-01-09T09:04:30.942Z,984.04
2023-01-09T09:05:30.975Z,984.05
2023-01-09T09:06:30.903Z,984.07
2023-01-09T09:07:30.929Z,984.06
2023-01-09T09:08:30.864Z,984.10
2023-01-09T09:09:30.843Z,984.15
2023-01-09T09:10:30.899Z,984.07
2023-01-09T09:11:30.808Z,984.03
2023-01-09T09:12:30.809Z,983.98
2023-01-09T09:13:30.794Z,984.05
2023-01-09T09:14:30.771Z,984.03
2023-01-09T09:15:30.756Z,984.05
2023-01-09T09:16:30.801Z,984.09
2023-01-09T09:17:30.697Z,984.05
2023-01-09T09:18:30.692Z,984.01
2023-01-09T09:19:30.659Z,984.07
2023-01-09T09:20:30.643Z,984.04
2023-01-09T09:21:30.634Z,984.06
2023-01-09T09:22:30.600Z,983.97
2023-01-09T09:23:30.636Z,983.98
2023-01-09T09:24:30.611Z,983.92
2023-01-09T09:25:30.556Z,983.92
2023-01-09T09:26:30.524Z,983.95
2023-01-09T09:27:30.609Z,983.90
2023-01-09T09:28:30.487Z,984.00
2023-01-09T09:29:30.472Z,983.95
2023-01-09T09:30:30.464Z,984.04
2023-01-09T09:31:30.511Z,983.90
2023-01-09T09:32:30.416Z,983.94
2023-01-09T09:33:30.409Z,983.90
2023-01-09T09:34:30.373Z,983.92
2023-01-09T09:35:30.363Z,983.92
2023-01-09T09:36:30.391Z,983.91
2023-01-09T09:37:30.391Z,983.90
2023-01-09T09:38:30.417Z,983.93
2023-01-09T09:39:30.293Z,983.90
2023-01-09T09:40:30.276Z,983.84
2023-01-09T09:41:30.260Z,983.96
2023-01-09T09:42:30.239Z,983.92
2023-01-09T09:43:30.236Z,983.95
2023-01-09T09:44:30.204Z,983.86
2023-01-09T09:45:30.231Z,983.92
2023-01-09T09:46:30.209Z,983.98
2023-01-09T09:47:30.165Z,983.99
2023-01-09T09:48:30.123Z,983.99
2023-01-09T09:49:30.195Z,983.95
2023-01-09T09:50:30.189Z,983.99
2023-01-09T09:51:30.193Z,983.97
2023-01-09T09:52:30.178Z,984.03
2023-01-09T09:53:30.345Z,983.97
2023-01-09T09:54:30.020Z,983.96
2023-01-09T09:55:29.999Z,983.97
2023-01-09T09:56:30.004Z,984.02
2023-01-09T09:57:29.967Z,984.01
2023-01-09T09:58:29.942Z,984.01
2023-01-09T09:59:29.926Z,984.00
2023-01-09T10:00:29.917Z,984.00
2023-01-09T10:01:29.902Z,983.98
2023-01-09T10:02:30.057Z,983.99
2023-01-09T10:03:34.191Z,984.03
2023-01-09T10:04:29.836Z,984.03
2023-01-09T10:05:29.813Z,984.06
2023-01-09T10:06:29.798Z,984.04
2023-01-09T10:07:29.810Z,984.02
2023-01-09T10:08:29.796Z,984.01
2023-01-09T10:09:29.749Z,983.99
2023-01-09T10:10:29.755Z,984.00
2023-01-09T10:11:29.708Z,983.96
2023-01-09T10:12:29.709Z,983.98
2023-01-09T10:13:31.244Z,983.95
2023-01-09T10:14:29.680Z,983.94
2023-01-09T10:15:29.641Z,983.96
2023-01-09T10:16:29.614Z,983.96
2023-01-09T10:17:29.602Z,983.95
2023-01-09T10:18:29.608Z,983.96
2023-01-09T10:19:29.581Z,983.99
2023-01-09T10:20:29.546Z,984.02
2023-01-09T10:21:29.539Z,983.94
2023-01-09T10:22:29.505Z,984.00
2023-01-09T10:23:29.548Z,983.91
2023-01-09T10:24:29.474Z,983.97
2023-01-09T10:25:29.456Z,984.00
2023-01-09T10:26:29.444Z,983.96
2023-01-09T10:27:29.420Z,983.97
2023-01-09T10:28:29.408Z,983.97
2023-01-09T10:29:29.418Z,983.98
2023-01-09T10:30:37.359Z,983.95
2023-01-09T10:31:29.430Z,983.95
2023-01-09T10:32:29.327Z,983.95
2023-01-09T10:33:29.314Z,983.95
2023-01-09T10:34:29.359Z,983.89
2023-01-09T10:35:39.353Z,983.90
2023-01-09T10:36:29.257Z,983.86
2023-01-09T10:37:29.252Z,983.86
2023-01-09T10:38:29.226Z,983.96
2023-01-09T10:39:29.205Z,983.90
2023-01-09T10:40:29.240Z,983.88
2023-01-09T10:41:29.168Z,983.91
2023-01-09T10:42:29.253Z,983.94
2023-01-09T10:43:29.132Z,983.87
2023-01-09T10:44:29.137Z,983.89
2023-01-09T10:45:29.097Z,983.90
2023-01-09T10:46:29.157Z,983.93
2023-01-09T10:47:29.085Z,983.96
2023-01-09T10:48:29.036Z,983.96
2023-01-09T10:49:29.023Z,983.92
2023-01-09T10:50:29.002Z,984.04
2023-01-09T10:51:29.002Z,983.94
2023-01-09T10:52:29.030Z,984.00
2023-01-09T10:53:28.964Z,984.00
2023-01-09T10:54:28.930Z,983.95
2023-01-09T10:55:28.917Z,983.94
2023-01-09T10:56:28.903Z,984.00
2023-01-09T10:57:28.880Z,984.00
2023-01-09T10:58:28.871Z,983.95
2023-01-09T10:59:28.848Z,983.92
2023-01-09T11:00:28.821Z,983.98
2023-01-09T11:01:28.806Z,983.99
2023-01-09T11:02:28.825Z,984.03
2023-01-09T11:03:28.876Z,983.96
2023-01-09T11:04:28.749Z,983.93
2023-01-09T11:05:29.607Z,983.89
2023-01-09T11:06:28.713Z,983.96
2023-01-09T11:07:28.711Z,983.90
2023-01-09T11:08:28.670Z,983.87
2023-01-09T11:09:28.728Z,983.85
2023-01-09T11:10:28.637Z,983.83
2023-01-09T11:11:28.631Z,983.79
2023-01-09T11:12:28.604Z,983.79
2023-01-09T11:13:28.601Z,983.82
2023-01-09T11:14:29.505Z,983.79
2023-01-09T11:15:28.556Z,983.81
2023-01-09T11:16:28.624Z,983.79
2023-01-09T11:17:28.513Z,983.84
2023-01-09T11:18:28.485Z,983.85
2023-01-09T11:19:28.487Z,983.82
2023-01-09T11:20:28.464Z,983.75
2023-01-09T11:21:28.433Z,983.77
2023-01-09T11:22:28.654Z,983.82
2023-01-09T11:23:28.395Z,983.83
2023-01-09T11:24:28.393Z,983.81
2023-01-09T11:25:28.367Z,983.79
2023-01-09T11:26:28.379Z,983.87
2023-01-09T11:27:28.394Z,983.87
2023-01-09T11:28:28.305Z,983.94
2023-01-09T11:29:28.296Z,983.86
2023-01-09T11:30:28.324Z,983.84
2023-01-09T11:31:28.280Z,983.88
2023-01-09T11:32:28.241Z,983.83
2023-01-09T11:33:28.214Z,983.81
2023-01-09T11:34:28.188Z,983.97
2023-01-09T11:35:28.176Z,983.93
2023-01-09T11:36:28.153Z,983.96
2023-01-09T11:37:28.169Z,983.85
2023-01-09T11:38:28.119Z,983.90
2023-01-09T11:39:28.828Z,983.93
2023-01-09T11:40:28.089Z,983.97
2023-01-09T11:41:28.066Z,983.97
2023-01-09T11:42:28.072Z,984.00
2023-01-09T11:43:28.131Z,983.97
2023-01-09T11:44:28.015Z,984.07
2023-01-09T11:45:27.997Z,984.03
2023-01-09T11:46:28.003Z,983.98
2023-01-09T11:47:27.951Z,984.00
2023-01-09T11:48:27.928Z,984.02
2023-01-09T11:49:27.922Z,984.04
2023-01-09T11:50:27.891Z,984.10
2023-01-09T11:51:27.889Z,984.03
2023-01-09T11:52:28.019Z,984.04
2023-01-09T11:53:27.844Z,984.04
2023-01-09T11:54:27.815Z,984.00
2023-01-09T11:55:34.793Z,984.13
2023-01-09T11:56:27.791Z,984.07
2023-01-09T11:57:27.765Z,984.07
2023-01-09T11:58:27.785Z,984.10
2023-01-09T11:59:27.729Z,984.09
2023-01-09T12:00:27.700Z,984.11
2023-01-09T12:01:27.692Z,984.12
2023-01-09T12:02:27.663Z,984.11
2023-01-09T12:03:27.780Z,984.08
2023-01-09T12:04:27.631Z,984.05
2023-01-09T12:05:27.612Z,984.08
2023-01-09T12:06:27.593Z,984.12
2023-01-09T12:07:27.575Z,984.08
2023-01-09T12:08:27.606Z,984.16
2023-01-09T12:09:27.537Z,984.13
2023-01-09T12:10:27.543Z,984.19
2023-01-09T12:11:27.498Z,984.18
2023-01-09T12:12:27.483Z,984.15
2023-01-09T12:13:27.458Z,984.14
2023-01-09T12:14:27.467Z,984.11
2023-01-09T12:15:27.436Z,984.11
2023-01-09T12:16:27.479Z,984.15
2023-01-09T12:17:27.394Z,984.16
2023-01-09T12:18:27.444Z,984.17
2023-01-09T12:19:29.273Z,984.19
2023-01-09T12:20:27.332Z,984.13
2023-01-09T12:21:27.359Z,984.17
2023-01-09T12:22:27.288Z,984.18
2023-01-09T12:23:27.378Z,984.22
2023-01-09T12:24:27.254Z,984.15
2023-01-09T12:25:27.237Z,984.17
2023-01-09T12:26:27.253Z,984.19
2023-01-09T12:27:27.195Z,984.24
2023-01-09T12:28:27.190Z,984.22